createdAt,value
2023-03-16T00:00:54.368Z,3.41
2023-03-16T00:01:49.930Z,3.37
2023-03-16T00:02:45.610Z,3.44
2023-03-16T00:03:41.046Z,3.25
2023-03-16T00:04:36.540Z,3.29
2023-03-16T00:05:32.070Z,3.22
2023-03-16T00:06:27.657Z,3.27
2023-03-16T00:07:24.661Z,3.29
2023-03-16T00:08:20.236Z,3.36
2023-03-16T00:09:15.803Z,3.29
2023-03-16T00:10:11.501Z,3.32
2023-03-16T00:11:07.035Z,3.29
2023-03-16T00:12:02.568Z,3.29
2023-03-16T00:12:58.104Z,3.35
2023-03-16T00:13:53.662Z,3.26
2023-03-16T00:14:49.216Z,3.26
2023-03-16T00:15:44.755Z,3.26
2023-03-16T00:16:40.351Z,3.18
2023-03-16T00:17:35.824Z,3.20
2023-03-16T00:18:31.368Z,3.17
2023-03-16T00:19:26.888Z,3.17
2023-03-16T00:20:22.425Z,3.22
2023-03-16T00:21:17.978Z,3.14
2023-03-16T00:22:13.496Z,3.20
2023-03-16T00:23:09.036Z,3.17
2023-03-16T00:24:04.560Z,3.09
2023-03-16T00:25:00.124Z,3.12
2023-03-16T00:25:55.730Z,3.15
2023-03-16T00:26:51.144Z,3.14
2023-03-16T00:27:46.698Z,3.09
2023-03-16T00:28:42.225Z,3.20
2023-03-16T00:29:37.738Z,3.15
2023-03-16T00:30:33.279Z,3.09
2023-03-16T00:31:28.834Z,3.08
2023-03-16T00:32:24.356Z,3.15
2023-03-16T00:33:19.867Z,3.11
2023-03-16T00:34:15.409Z,3.09
2023-03-16T00:35:10.940Z,3.07
2023-03-16T00:36:06.513Z,2.99
2023-03-16T00:37:02.010Z,3.05
2023-03-16T00:37:57.546Z,3.07
2023-03-16T00:38:53.073Z,3.09
2023-03-16T00:39:48.617Z,2.96
2023-03-16T00:40:45.181Z,2.97
2023-03-16T00:41:40.702Z,2.97
2023-03-16T00:42:36.247Z,3.00
2023-03-16T00:43:31.784Z,2.96
2023-03-16T00:44:27.321Z,2.91
2023-03-16T00:45:23.321Z,2.94
2023-03-16T00:46:18.931Z,2.94
2023-03-16T00:47:14.404Z,2.90
2023-03-16T00:48:09.919Z,2.93
2023-03-16T00:49:05.456Z,2.94
2023-03-16T00:50:01.035Z,3.04
2023-03-16T00:50:56.549Z,2.90
2023-03-16T00:51:52.097Z,2.93
2023-03-16T00:52:47.646Z,2.96
2023-03-16T00:53:44.202Z,2.89
2023-03-16T00:54:39.721Z,2.87
2023-03-16T00:55:43.980Z,2.79
2023-03-16T00:56:40.018Z,2.82
2023-03-16T00:57:36.063Z,2.82
2023-03-16T00:58:32.087Z,2.84
2023-03-16T00:59:28.073Z,2.84
2023-03-16T01:00:24.109Z,2.81
2023-03-16T01:01:20.308Z,2.87
2023-03-16T01:02:16.235Z,2.79
2023-03-16T01:03:12.348Z,2.86
2023-03-16T01:04:08.358Z,2.82
2023-03-16T01:05:04.386Z,2.69
2023-03-16T01:06:00.439Z,2.69
2023-03-16T01:06:56.493Z,2.73
2023-03-16T01:07:52.618Z,2.82
2023-03-16T01:08:48.665Z,2.81
2023-03-16T01:09:44.689Z,2.82
2023-03-16T01:10:40.727Z,2.72
2023-03-16T01:11:36.780Z,2.73
2023-03-16T01:12:32.804Z,2.71
2023-03-16T01:13:29.837Z,2.68
2023-03-16T01:14:25.851Z,2.72
2023-03-16T01:15:21.874Z,2.72
2023-03-16T01:16:17.945Z,2.68
2023-03-16T01:17:13.969Z,2.78
2023-03-16T01:18:09.975Z,2.68
2023-03-16T01:19:06.013Z,2.65
2023-03-16T01:20:02.031Z,2.68
2023-03-16T01:20:58.079Z,2.65
2023-03-16T01:21:54.121Z,2.61
2023-03-16T01:22:50.151Z,2.69
2023-03-16T01:23:46.179Z,2.57
2023-03-16T01:24:42.235Z,2.71
2023-03-16T01:25:39.094Z,2.55
2023-03-16T01:26:35.117Z,2.55
2023-03-16T01:27:31.153Z,2.61
2023-03-16T01:28:27.242Z,2.65
2023-03-16T01:29:24.250Z,2.55
2023-03-16T01:30:09.404Z,2.63
2023-03-16T01:31:05.563Z,2.60
2023-03-16T01:32:01.503Z,2.57
2023-03-16T01:32:58.539Z,2.50
2023-03-16T01:33:54.544Z,2.61
2023-03-16T01:34:50.571Z,2.58
2023-03-16T01:35:47.669Z,2.53
2023-03-16T01:36:43.654Z,2.51
2023-03-16T01:37:39.692Z,2.53
2023-03-16T01:38:35.714Z,2.55
2023-03-16T01:39:31.733Z,2.54
2023-03-16T01:40:28.008Z,2.51
2023-03-16T01:41:24.797Z,2.57
2023-03-16T01:42:20.829Z,2.45
2023-03-16T01:43:16.859Z,2.51
2023-03-16T01:44:12.903Z,2.51
2023-03-16T01:45:08.937Z,2.55
2023-03-16T01:46:05.105Z,2.54
2023-03-16T01:47:00.975Z,2.53
2023-03-16T01:47:56.997Z,2.42
2023-03-16T01:48:54.038Z,2.55
2023-03-16T01:49:50.056Z,2.50
2023-03-16T01:50:46.104Z,2.45
2023-03-16T01:51:42.109Z,2.36
2023-03-16T01:52:38.142Z,2.43
2023-03-16T01:53:34.180Z,2.35
2023-03-16T01:54:30.203Z,2.37
2023-03-16T01:55:26.237Z,2.50
2023-03-16T01:56:22.253Z,2.43
2023-03-16T01:57:18.278Z,2.42
2023-03-16T01:58:14.332Z,2.47
2023-03-16T01:59:10.339Z,2.40
2023-03-16T02:00:06.396Z,2.33
2023-03-16T02:01:02.438Z,2.32
2023-03-16T02:01:58.416Z,2.40
2023-03-16T02:02:54.449Z,2.29
2023-03-16T02:03:51.492Z,2.40
2023-03-16T02:04:47.623Z,2.35
2023-03-16T02:05:43.587Z,2.30
2023-03-16T02:06:39.590Z,2.29
2023-03-16T02:07:35.630Z,2.24
2023-03-16T02:08:32.659Z,2.28
2023-03-16T02:09:28.701Z,2.33
2023-03-16T02:10:24.700Z,2.36
2023-03-16T02:11:20.717Z,2.33
2023-03-16T02:12:16.805Z,2.32
2023-03-16T02:13:13.839Z,2.32
2023-03-16T02:14:09.882Z,2.29
2023-03-16T02:15:05.892Z,2.28
2023-03-16T02:16:01.989Z,2.32
2023-03-16T02:16:57.958Z,2.35
2023-03-16T02:17:53.989Z,2.40
2023-03-16T02:18:50.034Z,2.25
2023-03-16T02:19:46.054Z,2.33
2023-03-16T02:20:42.098Z,2.29
2023-03-16T02:21:38.122Z,2.28
2023-03-16T02:22:35.144Z,2.36
2023-03-16T02:23:31.178Z,2.22
2023-03-16T02:24:27.211Z,2.29
2023-03-16T02:25:23.256Z,2.32
2023-03-16T02:26:19.289Z,2.29
2023-03-16T02:27:15.324Z,2.24
2023-03-16T02:28:12.386Z,2.33
2023-03-16T02:29:08.405Z,2.29
2023-03-16T02:30:04.478Z,2.22
2023-03-16T02:31:00.541Z,2.29
2023-03-16T02:31:56.560Z,2.30
2023-03-16T02:32:52.617Z,2.29
2023-03-16T02:33:48.614Z,2.25
2023-03-16T02:34:44.627Z,2.32
2023-03-16T02:35:40.706Z,2.29
2023-03-16T02:36:36.685Z,2.32
2023-03-16T02:37:32.736Z,2.24
2023-03-16T02:38:28.753Z,2.22
2023-03-16T02:39:24.791Z,2.25
2023-03-16T02:40:20.860Z,2.24
2023-03-16T02:41:16.856Z,2.24
2023-03-16T02:42:12.980Z,2.18
2023-03-16T02:43:09.021Z,2.32
2023-03-16T02:44:05.053Z,2.25
2023-03-16T02:45:01.075Z,2.30
2023-03-16T02:45:57.078Z,2.22
2023-03-16T02:46:54.187Z,2.19
2023-03-16T02:47:50.165Z,2.12
2023-03-16T02:48:46.185Z,2.17
2023-03-16T02:49:42.221Z,2.19
2023-03-16T02:50:38.222Z,2.14
2023-03-16T02:51:34.254Z,1.95
2023-03-16T02:52:30.278Z,2.15
2023-03-16T02:53:27.319Z,2.14
2023-03-16T02:54:23.348Z,2.15
2023-03-16T02:55:19.356Z,2.12
2023-03-16T02:56:15.403Z,2.06
2023-03-16T02:57:11.409Z,2.11
2023-03-16T02:58:07.522Z,2.11
2023-03-16T02:59:03.561Z,2.18
2023-03-16T02:59:59.609Z,2.18
2023-03-16T03:00:55.640Z,2.01
2023-03-16T03:01:51.652Z,2.07
2023-03-16T03:02:47.720Z,2.03
2023-03-16T03:03:43.743Z,2.01
2023-03-16T03:04:39.756Z,2.01
2023-03-16T03:05:35.766Z,2.00
2023-03-16T03:06:31.790Z,2.07
2023-03-16T03:07:27.828Z,1.99
2023-03-16T03:08:12.979Z,2.07
2023-03-16T03:08:58.150Z,1.97
2023-03-16T03:09:54.197Z,1.95
2023-03-16T03:10:50.263Z,1.95
2023-03-16T03:11:46.264Z,1.93
2023-03-16T03:12:42.294Z,1.92
2023-03-16T03:13:38.341Z,1.89
2023-03-16T03:14:34.378Z,1.93
2023-03-16T03:15:31.425Z,1.84
2023-03-16T03:16:27.566Z,1.95
2023-03-16T03:17:23.553Z,1.99
2023-03-16T03:18:19.572Z,1.95
2023-03-16T03:19:15.631Z,1.95
2023-03-16T03:20:11.628Z,1.89
2023-03-16T03:21:07.690Z,1.99
2023-03-16T03:22:03.735Z,1.93
2023-03-16T03:22:59.772Z,1.92
2023-03-16T03:23:55.791Z,1.84
2023-03-16T03:24:51.831Z,1.89
2023-03-16T03:25:47.861Z,1.91
2023-03-16T03:26:43.868Z,1.87
2023-03-16T03:27:39.995Z,1.87
2023-03-16T03:28:35.963Z,1.89
2023-03-16T03:29:32.009Z,1.87
2023-03-16T03:30:28.244Z,1.84
2023-03-16T03:31:24.117Z,1.84
2023-03-16T03:32:31.424Z,1.82
2023-03-16T03:33:27.430Z,1.82
2023-03-16T03:34:23.480Z,1.84
2023-03-16T03:35:19.496Z,1.85
2023-03-16T03:36:15.542Z,1.81
2023-03-16T03:37:11.534Z,1.78
2023-03-16T03:38:07.568Z,1.81
2023-03-16T03:39:03.602Z,1.89
2023-03-16T03:39:59.612Z,1.80
2023-03-16T03:40:55.642Z,1.89
2023-03-16T03:41:51.653Z,1.89
2023-03-16T03:42:48.250Z,1.87
2023-03-16T03:43:44.298Z,1.77
2023-03-16T03:44:40.352Z,1.82
2023-03-16T03:45:36.426Z,1.80
2023-03-16T03:46:32.526Z,1.81
2023-03-16T03:47:28.411Z,1.71
2023-03-16T03:48:24.465Z,1.66
2023-03-16T03:49:20.484Z,1.73
2023-03-16T03:50:16.600Z,1.69
2023-03-16T03:51:12.533Z,1.67
2023-03-16T03:52:08.585Z,1.66
2023-03-16T03:53:04.608Z,1.64
2023-03-16T03:54:00.725Z,1.73
2023-03-16T03:54:56.693Z,1.64
2023-03-16T03:55:52.733Z,1.67
2023-03-16T03:56:48.766Z,1.73
2023-03-16T03:57:44.800Z,1.71
2023-03-16T03:58:40.816Z,1.71
2023-03-16T03:59:36.839Z,1.71
2023-03-16T04:00:32.868Z,1.63
2023-03-16T04:01:28.914Z,1.63
2023-03-16T04:02:25.046Z,1.63
2023-03-16T04:03:21.016Z,1.66
2023-03-16T04:04:16.969Z,1.69
2023-03-16T04:05:13.012Z,1.57
2023-03-16T04:06:09.093Z,1.63
2023-03-16T04:07:06.102Z,1.64
2023-03-16T04:08:02.127Z,1.66
2023-03-16T04:08:58.251Z,1.66
2023-03-16T04:09:54.260Z,1.73
2023-03-16T04:10:50.293Z,1.67
2023-03-16T04:11:46.353Z,1.64
2023-03-16T04:12:42.387Z,1.57
2023-03-16T04:13:38.410Z,1.62
2023-03-16T04:14:34.464Z,1.57
2023-03-16T04:15:30.474Z,1.60
2023-03-16T04:16:26.539Z,1.64
2023-03-16T04:17:22.532Z,1.62
2023-03-16T04:18:18.598Z,1.66
2023-03-16T04:19:14.640Z,1.59
2023-03-16T04:20:10.621Z,1.63
2023-03-16T04:21:06.633Z,1.63
2023-03-16T04:22:02.686Z,1.63
2023-03-16T04:22:58.877Z,1.60
2023-03-16T04:23:54.716Z,1.60
2023-03-16T04:24:50.731Z,1.64
2023-03-16T04:25:46.738Z,1.60
2023-03-16T04:26:42.786Z,1.59
2023-03-16T04:27:38.813Z,1.63
2023-03-16T04:28:34.855Z,1.56
2023-03-16T04:29:30.890Z,1.55
2023-03-16T04:30:27.162Z,1.60
2023-03-16T04:31:24.019Z,1.66
2023-03-16T04:32:19.953Z,1.67
2023-03-16T04:33:15.998Z,1.53
2023-03-16T04:34:12.010Z,1.59
2023-03-16T04:35:08.050Z,1.56
2023-03-16T04:36:04.224Z,1.55
2023-03-16T04:37:00.129Z,1.56
2023-03-16T04:37:56.190Z,1.60
2023-03-16T04:38:52.198Z,1.60
2023-03-16T04:39:48.204Z,1.53
2023-03-16T04:40:44.229Z,1.52
2023-03-16T04:41:40.266Z,1.56
2023-03-16T04:42:47.622Z,1.55
2023-03-16T04:43:43.662Z,1.59
2023-03-16T04:44:39.676Z,1.42
2023-03-16T04:45:35.747Z,1.42
2023-03-16T04:46:31.864Z,1.59
2023-03-16T04:47:27.817Z,1.46
2023-03-16T04:48:23.863Z,1.56
2023-03-16T04:49:19.886Z,1.48
2023-03-16T04:50:15.944Z,1.45
2023-03-16T04:51:11.963Z,1.45
2023-03-16T04:52:19.271Z,1.45
2023-03-16T04:53:15.295Z,1.57
2023-03-16T04:54:11.306Z,1.55
2023-03-16T04:55:07.333Z,1.55
2023-03-16T04:56:03.362Z,1.59
2023-03-16T04:56:59.376Z,1.55
2023-03-16T04:57:55.439Z,1.56
2023-03-16T04:58:51.439Z,1.46
2023-03-16T04:59:47.455Z,1.53
2023-03-16T05:00:43.494Z,1.48
2023-03-16T05:01:50.864Z,1.55
2023-03-16T05:02:46.814Z,1.52
2023-03-16T05:03:42.851Z,1.48
2023-03-16T05:04:38.873Z,1.55
2023-03-16T05:05:46.281Z,1.45
2023-03-16T05:06:42.224Z,1.38
2023-03-16T05:07:38.266Z,1.46
2023-03-16T05:08:34.313Z,1.52
2023-03-16T05:09:30.329Z,1.42
2023-03-16T05:10:26.740Z,1.38
2023-03-16T05:11:22.435Z,1.53
2023-03-16T05:12:18.446Z,1.44
2023-03-16T05:13:25.750Z,1.48
2023-03-16T05:14:21.807Z,1.52
2023-03-16T05:15:17.845Z,1.52
2023-03-16T05:16:25.283Z,1.42
2023-03-16T05:17:21.236Z,1.44
2023-03-16T05:18:17.305Z,1.39
2023-03-16T05:19:13.295Z,1.46
2023-03-16T05:20:09.309Z,1.45
2023-03-16T05:21:05.353Z,1.38
2023-03-16T05:22:01.346Z,1.39
2023-03-16T05:22:57.436Z,1.42
2023-03-16T05:23:53.420Z,1.36
2023-03-16T05:24:49.434Z,1.44
2023-03-16T05:25:47.160Z,1.38
2023-03-16T05:26:41.535Z,1.38
2023-03-16T05:27:37.550Z,1.44
2023-03-16T05:28:33.559Z,1.46
2023-03-16T05:29:29.567Z,1.36
2023-03-16T05:30:25.598Z,1.34
2023-03-16T05:31:21.675Z,1.38
2023-03-16T05:32:17.681Z,1.45
2023-03-16T05:33:13.715Z,1.34
2023-03-16T05:34:09.737Z,1.34
2023-03-16T05:35:05.740Z,1.38
2023-03-16T05:36:01.890Z,1.41
2023-03-16T05:36:57.963Z,1.36
2023-03-16T05:37:53.932Z,1.30
2023-03-16T05:38:49.954Z,1.36
2023-03-16T05:39:46.020Z,1.35
2023-03-16T05:40:42.036Z,1.35
2023-03-16T05:41:38.070Z,1.35
2023-03-16T05:42:34.091Z,1.36
2023-03-16T05:43:30.147Z,1.30
2023-03-16T05:44:26.153Z,1.36
2023-03-16T05:45:22.163Z,1.31
2023-03-16T05:46:20.675Z,1.38
2023-03-16T05:47:13.796Z,1.48
2023-03-16T05:48:09.808Z,1.31
2023-03-16T05:49:05.837Z,1.28
2023-03-16T05:50:01.863Z,1.39
2023-03-16T05:50:57.877Z,1.38
2023-03-16T05:51:53.910Z,1.48
2023-03-16T05:52:49.991Z,1.52
2023-03-16T05:53:46.029Z,1.39
2023-03-16T05:54:42.049Z,1.38
2023-03-16T05:55:38.084Z,1.42
2023-03-16T05:56:34.222Z,1.44
2023-03-16T05:57:30.135Z,1.52
2023-03-16T05:58:26.167Z,1.44
2023-03-16T05:59:22.206Z,1.36
2023-03-16T06:00:18.262Z,1.38
2023-03-16T06:01:14.294Z,1.49
2023-03-16T06:02:10.287Z,1.53
2023-03-16T06:03:06.387Z,1.55
2023-03-16T06:04:02.435Z,1.44
2023-03-16T06:04:58.401Z,1.45
2023-03-16T06:05:54.423Z,1.55
2023-03-16T06:06:50.521Z,1.44
2023-03-16T06:07:46.561Z,1.42
2023-03-16T06:08:42.578Z,1.62
2023-03-16T06:09:38.599Z,1.55
2023-03-16T06:10:34.678Z,1.55
2023-03-16T06:11:30.697Z,1.67
2023-03-16T06:12:26.701Z,1.63
2023-03-16T06:13:22.739Z,1.60
2023-03-16T06:14:18.767Z,1.59
2023-03-16T06:15:14.794Z,1.75
2023-03-16T06:16:10.941Z,1.67
2023-03-16T06:17:06.922Z,1.73
2023-03-16T06:18:02.908Z,1.73
2023-03-16T06:18:59.939Z,1.81
2023-03-16T06:19:55.510Z,1.82
2023-03-16T06:20:54.492Z,1.84
2023-03-16T06:21:51.151Z,1.85
2023-03-16T06:22:48.438Z,1.99
2023-03-16T06:23:45.146Z,1.97
2023-03-16T06:24:40.612Z,2.03
2023-03-16T06:25:39.514Z,2.01
2023-03-16T06:26:32.784Z,2.07
2023-03-16T06:27:29.697Z,2.12
2023-03-16T06:28:25.725Z,2.30
2023-03-16T06:29:21.757Z,2.28
2023-03-16T06:30:17.821Z,2.24
2023-03-16T06:31:13.805Z,2.28
2023-03-16T06:32:10.855Z,2.35
2023-03-16T06:33:07.037Z,2.32
2023-03-16T06:34:02.932Z,2.32
2023-03-16T06:34:58.945Z,2.39
2023-03-16T06:35:55.070Z,2.37
2023-03-16T06:36:52.032Z,2.42
2023-03-16T06:37:48.102Z,2.55
2023-03-16T06:38:44.240Z,2.53
2023-03-16T06:39:40.307Z,2.60
2023-03-16T06:40:36.382Z,2.55
2023-03-16T06:41:32.339Z,2.65
2023-03-16T06:42:28.434Z,2.71
2023-03-16T06:43:24.438Z,2.86
2023-03-16T06:44:20.448Z,2.84
2023-03-16T06:45:16.511Z,2.84
2023-03-16T06:46:12.669Z,2.84
2023-03-16T06:47:08.557Z,2.93
2023-03-16T06:48:04.579Z,2.99
2023-03-16T06:49:00.620Z,2.94
2023-03-16T06:49:56.615Z,2.96
2023-03-16T06:50:52.664Z,3.11
2023-03-16T06:51:48.668Z,3.08
2023-03-16T06:52:44.699Z,3.15
2023-03-16T06:53:40.733Z,3.12
2023-03-16T06:54:36.972Z,3.11
2023-03-16T06:55:41.242Z,3.17
2023-03-16T06:56:36.753Z,3.22
2023-03-16T06:57:32.332Z,3.29
2023-03-16T06:58:28.310Z,3.33
2023-03-16T06:59:24.859Z,3.35
2023-03-16T07:00:20.380Z,3.46
2023-03-16T07:01:16.078Z,3.44
2023-03-16T07:02:11.480Z,3.49
2023-03-16T07:03:07.016Z,3.52
2023-03-16T07:04:02.577Z,3.51
2023-03-16T07:04:58.091Z,3.59
2023-03-16T07:05:53.643Z,3.62
2023-03-16T07:06:49.181Z,3.70
2023-03-16T07:07:44.878Z,3.76
2023-03-16T07:08:40.828Z,3.70
2023-03-16T07:09:39.170Z,3.90
2023-03-16T07:10:31.953Z,3.91
2023-03-16T07:11:28.464Z,3.87
2023-03-16T07:12:24.488Z,3.90
2023-03-16T07:13:20.057Z,4.03
2023-03-16T07:14:15.582Z,3.99
2023-03-16T07:15:11.128Z,4.10
2023-03-16T07:16:06.870Z,4.16
2023-03-16T07:17:02.315Z,4.16
2023-03-16T07:17:57.769Z,4.21
2023-03-16T07:18:53.320Z,4.30
2023-03-16T07:19:48.902Z,4.23
2023-03-16T07:20:44.454Z,4.35
2023-03-16T07:21:40.464Z,4.42
2023-03-16T07:22:36.481Z,4.39
2023-03-16T07:23:32.505Z,4.38
2023-03-16T07:24:28.528Z,4.39
2023-03-16T07:25:24.559Z,4.43
2023-03-16T07:26:20.152Z,4.57
2023-03-16T07:27:17.183Z,4.48
2023-03-16T07:28:13.213Z,4.61
2023-03-16T07:29:09.239Z,4.63
2023-03-16T07:30:05.254Z,4.69
2023-03-16T07:31:04.185Z,4.82
2023-03-16T07:31:57.312Z,4.85
2023-03-16T07:32:53.440Z,4.93
2023-03-16T07:33:49.317Z,4.85
2023-03-16T07:34:45.320Z,4.88
2023-03-16T07:35:41.343Z,5.06
2023-03-16T07:36:48.644Z,5.15
2023-03-16T07:37:44.690Z,5.06
2023-03-16T07:38:40.681Z,5.14
2023-03-16T07:39:36.698Z,5.36
2023-03-16T07:40:33.729Z,5.33
2023-03-16T07:41:32.654Z,5.36
2023-03-16T07:42:26.767Z,5.48
2023-03-16T07:43:22.781Z,5.52
2023-03-16T07:44:18.814Z,5.55
2023-03-16T07:45:14.816Z,5.65
2023-03-16T07:46:10.406Z,5.70
2023-03-16T07:47:06.411Z,5.72
2023-03-16T07:48:02.422Z,5.77
2023-03-16T07:48:57.963Z,5.87
2023-03-16T07:49:53.995Z,5.80
2023-03-16T07:50:51.020Z,5.94
2023-03-16T07:51:47.024Z,6.12
2023-03-16T07:52:43.054Z,6.09
2023-03-16T07:53:39.136Z,6.21
2023-03-16T07:54:35.126Z,6.30
2023-03-16T07:55:31.167Z,6.37
2023-03-16T07:56:31.443Z,6.46
2023-03-16T07:57:23.193Z,6.49
2023-03-16T07:58:19.211Z,6.50
2023-03-16T07:59:14.780Z,6.53
2023-03-16T08:00:10.841Z,6.64
2023-03-16T08:01:06.817Z,6.63
2023-03-16T08:02:02.930Z,6.75
2023-03-16T08:02:58.877Z,6.91
2023-03-16T08:03:54.950Z,6.86
2023-03-16T08:04:50.560Z,7.07
2023-03-16T08:05:46.564Z,7.24
2023-03-16T08:06:42.602Z,7.40
2023-03-16T08:07:38.638Z,7.43
2023-03-16T08:08:34.644Z,7.64
2023-03-16T08:09:31.685Z,7.60
2023-03-16T08:10:29.105Z,7.73
2023-03-16T08:11:24.747Z,7.88
2023-03-16T08:12:20.757Z,8.05
2023-03-16T08:13:16.308Z,8.13
2023-03-16T08:14:11.864Z,8.28
2023-03-16T08:15:07.871Z,8.42
2023-03-16T08:16:04.003Z,8.47
2023-03-16T08:16:59.529Z,8.55
2023-03-16T08:17:55.098Z,8.72
2023-03-16T08:18:51.119Z,9.03
2023-03-16T08:19:47.152Z,9.08
2023-03-16T08:20:42.721Z,9.29
2023-03-16T08:21:49.236Z,9.41
2023-03-16T08:22:34.755Z,9.54
2023-03-16T08:23:30.780Z,9.66
2023-03-16T08:24:26.799Z,9.81
2023-03-16T08:25:22.818Z,9.93
2023-03-16T08:26:18.392Z,10.09
2023-03-16T08:27:14.416Z,10.28
2023-03-16T08:28:10.447Z,10.31
2023-03-16T08:29:07.680Z,10.55
2023-03-16T08:30:03.593Z,10.76
2023-03-16T08:30:59.652Z,10.86
2023-03-16T08:31:55.682Z,11.01
2023-03-16T08:32:51.249Z,11.15
2023-03-16T08:33:47.239Z,11.37
2023-03-16T08:34:42.774Z,11.49
2023-03-16T08:35:38.445Z,11.58
2023-03-16T08:36:33.892Z,11.71
2023-03-16T08:37:29.443Z,12.00
2023-03-16T08:38:24.985Z,12.21
2023-03-16T08:39:21.533Z,12.36
2023-03-16T08:40:17.114Z,12.41
2023-03-16T08:41:12.643Z,12.58
2023-03-16T08:42:08.677Z,12.87
2023-03-16T08:43:04.237Z,12.93
2023-03-16T08:43:59.795Z,13.05
2023-03-16T08:44:55.839Z,13.29
2023-03-16T08:45:52.871Z,13.46
2023-03-16T08:46:49.043Z,13.71
2023-03-16T08:47:44.490Z,13.88
2023-03-16T08:48:40.004Z,14.05
2023-03-16T08:49:36.041Z,13.97
2023-03-16T08:50:31.759Z,14.28
2023-03-16T08:51:27.670Z,14.46
2023-03-16T08:52:24.192Z,14.59
2023-03-16T08:53:19.786Z,14.63
2023-03-16T08:54:15.800Z,14.61
2023-03-16T08:55:11.834Z,14.86
2023-03-16T08:56:07.384Z,15.03
2023-03-16T08:57:03.423Z,15.25
2023-03-16T08:58:00.470Z,15.40
2023-03-16T08:58:56.488Z,15.62
2023-03-16T08:59:52.521Z,15.77
2023-03-16T09:00:50.520Z,15.93
2023-03-16T09:01:44.634Z,16.00
2023-03-16T09:02:40.620Z,16.13
2023-03-16T09:03:36.666Z,16.37
2023-03-16T09:04:32.887Z,16.58
2023-03-16T09:05:28.714Z,16.76
2023-03-16T09:06:24.732Z,16.87
2023-03-16T09:07:21.772Z,17.13
2023-03-16T09:08:17.791Z,17.28
2023-03-16T09:09:13.812Z,17.39
2023-03-16T09:10:09.853Z,17.54
2023-03-16T09:11:05.898Z,17.78
2023-03-16T09:12:01.921Z,17.90
2023-03-16T09:12:57.956Z,18.03
2023-03-16T09:13:53.975Z,18.18
2023-03-16T09:14:49.995Z,18.27
2023-03-16T09:15:46.052Z,18.54
2023-03-16T09:16:42.152Z,18.64
2023-03-16T09:17:38.118Z,18.70
2023-03-16T09:18:35.150Z,18.88
2023-03-16T09:19:47.864Z,19.01
2023-03-16T09:20:30.041Z,19.20
2023-03-16T09:21:22.766Z,19.34
2023-03-16T09:22:18.796Z,19.49
2023-03-16T09:23:14.827Z,19.59
2023-03-16T09:24:10.400Z,19.70
2023-03-16T09:25:06.415Z,19.68
2023-03-16T09:26:02.445Z,19.94
2023-03-16T09:26:59.058Z,20.07
2023-03-16T09:27:55.047Z,20.23
2023-03-16T09:28:51.070Z,20.32
2023-03-16T09:29:47.101Z,20.55
2023-03-16T09:30:43.108Z,20.74
2023-03-16T09:31:39.169Z,20.79
2023-03-16T09:32:35.334Z,20.93
2023-03-16T09:33:31.185Z,21.08
2023-03-16T09:34:27.738Z,21.26
2023-03-16T09:35:23.251Z,21.41
2023-03-16T09:36:18.852Z,21.58
2023-03-16T09:37:14.817Z,21.55
2023-03-16T09:38:10.841Z,21.59
2023-03-16T09:39:06.882Z,21.71
2023-03-16T09:40:06.922Z,21.69
2023-03-16T09:40:58.971Z,21.93
2023-03-16T09:42:06.256Z,22.09
2023-03-16T09:43:01.818Z,22.15
2023-03-16T09:43:57.833Z,22.28
2023-03-16T09:44:53.866Z,22.37
2023-03-16T09:45:49.944Z,22.44
2023-03-16T09:46:45.922Z,22.49
2023-03-16T09:47:41.489Z,22.70
2023-03-16T09:48:37.520Z,22.76
2023-03-16T09:49:33.548Z,22.78
2023-03-16T09:50:35.272Z,23.04
2023-03-16T09:51:25.238Z,23.06
2023-03-16T09:52:20.718Z,23.31
2023-03-16T09:53:16.275Z,23.17
2023-03-16T09:54:12.307Z,23.14
2023-03-16T09:55:08.343Z,23.25
2023-03-16T09:56:04.397Z,23.21
2023-03-16T09:57:00.409Z,23.10
2023-03-16T09:57:56.438Z,23.06
2023-03-16T09:58:53.512Z,23.15
2023-03-16T09:59:49.503Z,23.29
2023-03-16T10:00:45.591Z,23.48
2023-03-16T10:01:41.566Z,23.46
2023-03-16T10:02:37.612Z,23.56
2023-03-16T10:03:34.693Z,23.85
2023-03-16T10:04:30.230Z,23.96
2023-03-16T10:05:26.248Z,24.15
2023-03-16T10:06:22.305Z,24.07
2023-03-16T10:07:18.360Z,24.10
2023-03-16T10:08:13.925Z,24.10
2023-03-16T10:09:09.490Z,24.07
2023-03-16T10:10:05.506Z,24.08
2023-03-16T10:11:22.542Z,24.16
2023-03-16T10:12:18.594Z,24.16
2023-03-16T10:13:14.149Z,24.21
2023-03-16T10:14:10.172Z,24.38
2023-03-16T10:15:06.281Z,24.41
2023-03-16T10:16:02.402Z,24.58
2023-03-16T10:16:57.940Z,24.84
2023-03-16T10:17:53.388Z,24.96
2023-03-16T10:18:50.426Z,25.11
2023-03-16T10:19:45.992Z,25.30
2023-03-16T10:20:42.071Z,25.37
2023-03-16T10:21:38.066Z,25.06
2023-03-16T10:22:33.656Z,24.90
2023-03-16T10:23:29.624Z,24.55
2023-03-16T10:24:25.651Z,24.58
2023-03-16T10:25:21.202Z,24.44
2023-03-16T10:26:16.876Z,24.51
2023-03-16T10:27:12.915Z,24.79
2023-03-16T10:28:09.974Z,24.75
2023-03-16T10:29:05.507Z,24.34
2023-03-16T10:30:01.064Z,24.38
2023-03-16T10:30:58.127Z,24.62
2023-03-16T10:31:53.799Z,24.82
2023-03-16T10:32:49.805Z,24.75
2023-03-16T10:33:45.744Z,24.55
2023-03-16T10:34:41.773Z,24.90
2023-03-16T10:35:37.807Z,24.97
2023-03-16T10:36:33.401Z,25.01
2023-03-16T10:37:28.957Z,25.14
2023-03-16T10:38:24.487Z,25.38
2023-03-16T10:39:20.523Z,25.61
2023-03-16T10:40:16.080Z,25.86
2023-03-16T10:41:12.134Z,26.07
2023-03-16T10:42:09.659Z,26.27
2023-03-16T10:43:03.728Z,26.34
2023-03-16T10:43:59.771Z,26.45
2023-03-16T10:44:55.307Z,26.43
2023-03-16T10:45:51.379Z,26.39
2023-03-16T10:46:47.502Z,26.52
2023-03-16T10:47:42.947Z,26.43
2023-03-16T10:48:38.526Z,26.31
2023-03-16T10:49:34.542Z,26.53
2023-03-16T10:50:31.059Z,26.45
2023-03-16T10:51:26.589Z,26.46
2023-03-16T10:52:22.622Z,26.05
2023-03-16T10:53:18.709Z,25.89
2023-03-16T10:54:14.255Z,25.56
2023-03-16T10:55:10.273Z,25.51
2023-03-16T10:56:06.292Z,25.83
2023-03-16T10:57:02.329Z,26.08
2023-03-16T10:57:58.401Z,26.24
2023-03-16T10:58:53.912Z,26.49
2023-03-16T10:59:49.950Z,25.89
2023-03-16T11:00:46.516Z,25.37
2023-03-16T11:01:42.081Z,25.66
2023-03-16T11:02:37.602Z,25.63
2023-03-16T11:03:33.154Z,25.53
2023-03-16T11:04:28.729Z,25.88
2023-03-16T11:05:24.263Z,26.20
2023-03-16T11:06:19.827Z,26.41
2023-03-16T11:07:15.852Z,26.57
2023-03-16T11:08:11.911Z,26.71
2023-03-16T11:09:07.923Z,26.82
2023-03-16T11:10:03.490Z,26.90
2023-03-16T11:10:59.047Z,26.68
2023-03-16T11:11:54.617Z,26.93
2023-03-16T11:12:50.624Z,26.95
2023-03-16T11:13:46.654Z,27.07
2023-03-16T11:14:53.470Z,27.34
2023-03-16T11:15:49.520Z,27.54
2023-03-16T11:16:45.550Z,27.63
2023-03-16T11:17:41.590Z,27.70
2023-03-16T11:18:37.277Z,27.79
2023-03-16T11:19:33.145Z,27.73
2023-03-16T11:20:30.299Z,27.73
2023-03-16T11:21:26.863Z,27.76
2023-03-16T11:22:22.424Z,27.90
2023-03-16T11:23:17.983Z,27.61
2023-03-16T11:24:15.051Z,27.60
2023-03-16T11:25:11.075Z,27.49
2023-03-16T11:26:07.104Z,27.37
2023-03-16T11:27:03.129Z,27.35
2023-03-16T11:27:59.158Z,27.34
2023-03-16T11:28:54.721Z,27.75
2023-03-16T11:29:50.271Z,27.73
2023-03-16T11:30:45.843Z,27.93
2023-03-16T11:31:41.383Z,28.05
2023-03-16T11:32:36.988Z,28.12
2023-03-16T11:33:32.960Z,28.10
2023-03-16T11:34:28.563Z,28.28
2023-03-16T11:35:24.077Z,28.22
2023-03-16T11:36:19.678Z,28.12
2023-03-16T11:37:15.659Z,27.82
2023-03-16T11:38:11.701Z,27.90
2023-03-16T11:39:07.242Z,27.83
2023-03-16T11:40:02.810Z,27.69
2023-03-16T11:40:58.824Z,27.66
2023-03-16T11:41:54.375Z,27.73
2023-03-16T11:42:49.927Z,27.72
2023-03-16T11:43:45.476Z,27.93
2023-03-16T11:44:41.038Z,27.95
2023-03-16T11:45:36.592Z,27.91
2023-03-16T11:46:32.703Z,28.07
2023-03-16T11:47:28.174Z,28.16
2023-03-16T11:48:23.720Z,28.30
2023-03-16T11:49:19.288Z,27.64
2023-03-16T11:50:14.837Z,27.69
2023-03-16T11:51:10.860Z,27.63
2023-03-16T11:52:06.408Z,27.50
2023-03-16T11:53:02.435Z,27.70
2023-03-16T11:53:57.985Z,27.88
2023-03-16T11:54:53.538Z,27.98
2023-03-16T11:55:49.129Z,27.54
2023-03-16T11:56:44.659Z,27.38
2023-03-16T11:57:40.218Z,27.49
2023-03-16T11:58:36.250Z,27.72
2023-03-16T11:59:31.803Z,27.87
2023-03-16T12:00:28.371Z,27.94
2023-03-16T12:01:24.078Z,27.97
2023-03-16T12:02:19.643Z,27.82
2023-03-16T12:03:15.253Z,27.63
2023-03-16T12:04:10.760Z,27.66
2023-03-16T12:05:06.268Z,27.90
2023-03-16T12:06:13.616Z,27.90
2023-03-16T12:06:58.381Z,27.26
2023-03-16T12:07:53.929Z,26.88
2023-03-16T12:08:49.505Z,26.07
2023-03-16T12:09:45.076Z,25.70
2023-03-16T12:10:41.086Z,25.82
2023-03-16T12:11:36.662Z,26.07
2023-03-16T12:12:32.308Z,25.90
2023-03-16T12:13:27.864Z,25.81
2023-03-16T12:14:24.488Z,25.90
2023-03-16T12:15:19.993Z,26.00
2023-03-16T12:16:16.140Z,26.11
2023-03-16T12:17:11.562Z,26.34
2023-03-16T12:18:07.108Z,26.49
2023-03-16T12:19:02.681Z,26.64
2023-03-16T12:19:58.208Z,26.67